Time;durP1;ratioP1;P1;durP2;ratioP2;P2;SDS_P1;SDS_P2;PMS_P1;PMS_P2;Temp;Humidity;BMP_temperature;BMP_pressure;BME280_temperature;BME280_humidity;BME280_pressure;Samples;Min_cycle;Max_cycle;Signal;HPM_P1;HPM_P2
2023/09/30 00:04:29;;;;;;;15.10;9.32;;;;;;;;;;10294146;28;20533;-66
2023/09/30 00:09:28;;;;;;;19.75;8.48;;;;;;;;;;10294023;28;20522;-65
2023/09/30 00:14:26;;;;;;;16.25;8.93;;;;;;;;;;10293476;28;20064;-66
2023/09/30 00:19:24;;;;;;;15.15;8.00;;;;;;;;;;10296028;28;20076;-66
2023/09/30 00:24:24;;;;;;;14.23;8.52;;;;;;;;;;10292922;28;20068;-66
2023/09/30 00:29:22;;;;;;;15.60;6.43;;;;;;;;;;10295070;28;20080;-67
2023/09/30 00:34:21;;;;;;;14.00;6.55;;;;;;;;;;10293881;28;20064;-66
2023/09/30 00:39:19;;;;;;;12.75;6.00;;;;;;;;;;10292406;28;20064;-66
2023/09/30 00:44:19;;;;;;;14.45;6.35;;;;;;;;;;10293373;28;20072;-67
2023/09/30 00:49:18;;;;;;;9.60;5.70;;;;;;;;;;10292806;28;20502;-68
2023/09/30 00:54:16;;;;;;;11.80;4.97;;;;;;;;;;10297680;28;20080;-67
2023/09/30 00:59:15;;;;;;;19.00;5.47;;;;;;;;;;10298918;28;20076;-67
2023/09/30 01:04:17;;;;;;;17.67;5.03;;;;;;;;;;10293412;28;20266;-66
2023/09/30 01:09:16;;;;;;;23.40;5.45;;;;;;;;;;10294867;28;20080;-65
2023/09/30 01:14:32;;;;;;;17.42;4.93;;;;;;;;;;10301233;28;20161;-66
2023/09/30 01:19:32;;;;;;;11.77;4.90;;;;;;;;;;10288015;28;20083;-66
2023/09/30 01:24:31;;;;;;;11.18;4.78;;;;;;;;;;10291941;28;20716;-67
2023/09/30 01:29:29;;;;;;;11.35;3.78;;;;;;;;;;10289392;28;20155;-65
2023/09/30 01:34:28;;;;;;;11.82;4.57;;;;;;;;;;10297352;28;20076;-66
2023/09/30 01:39:26;;;;;;;11.15;4.15;;;;;;;;;;10291883;28;20068;-66
2023/09/30 01:44:26;;;;;;;16.25;4.32;;;;;;;;;;10290821;28;20072;-66
2023/09/30 01:49:26;;;;;;;8.25;4.05;;;;;;;;;;10295486;28;20084;-66
2023/09/30 01:54:25;;;;;;;10.43;3.90;;;;;;;;;;10296117;28;20498;-66
2023/09/30 01:59:25;;;;;;;8.23;3.72;;;;;;;;;;10291410;28;20423;-66
2023/09/30 02:04:24;;;;;;;14.05;4.93;;;;;;;;;;10294603;28;20080;-66
2023/09/30 02:09:22;;;;;;;13.95;5.28;;;;;;;;;;10290193;28;20851;-66
2023/09/30 02:14:21;;;;;;;12.65;4.30;;;;;;;;;;10296353;28;20072;-66
2023/09/30 02:19:21;;;;;;;15.43;4.57;;;;;;;;;;10282783;28;20079;-65
2023/09/30 02:24:23;;;;;;;8.02;4.75;;;;;;;;;;10288287;28;20076;-66
2023/09/30 02:29:21;;;;;;;9.60;4.85;;;;;;;;;;10290398;28;20069;-66
2023/09/30 02:34:20;;;;;;;8.07;4.88;;;;;;;;;;10288049;28;20073;-66
2023/09/30 02:39:19;;;;;;;18.63;5.20;;;;;;;;;;10295608;28;20080;-66
2023/09/30 02:44:19;;;;;;;15.30;5.00;;;;;;;;;;10294485;28;20477;-66
2023/09/30 02:49:17;;;;;;;20.52;5.88;;;;;;;;;;10288929;28;20064;-65
2023/09/30 02:54:17;;;;;;;12.07;6.22;;;;;;;;;;10294667;28;20072;-66
2023/09/30 02:59:16;;;;;;;11.20;5.97;;;;;;;;;;10288597;28;20084;-67
2023/09/30 03:04:19;;;;;;;15.27;5.40;;;;;;;;;;10295562;28;20080;-67
2023/09/30 03:09:17;;;;;;;9.27;5.10;;;;;;;;;;10298303;28;20099;-66
2023/09/30 03:14:15;;;;;;;13.77;5.85;;;;;;;;;;10296381;28;20083;-66
2023/09/30 03:19:16;;;;;;;17.83;5.28;;;;;;;;;;10297253;28;20075;-66
2023/09/30 03:24:17;;;;;;;11.65;5.30;;;;;;;;;;10296026;28;20087;-66
2023/09/30 03:29:15;;;;;;;13.70;5.78;;;;;;;;;;10295300;28;20080;-66
2023/09/30 03:34:16;;;;;;;14.65;6.10;;;;;;;;;;10295794;28;20097;-66
2023/09/30 03:39:15;;;;;;;12.35;5.88;;;;;;;;;;10295418;28;20068;-67
2023/09/30 03:44:15;;;;;;;18.30;7.15;;;;;;;;;;10301399;28;20084;-66
2023/09/30 03:49:13;;;;;;;13.15;7.85;;;;;;;;;;10296205;28;20087;-66
2023/09/30 03:54:11;;;;;;;16.60;8.48;;;;;;;;;;10294144;28;20072;-65
2023/09/30 03:59:09;;;;;;;20.50;9.63;;;;;;;;;;10293628;28;20079;-65
2023/09/30 04:04:09;;;;;;;21.48;8.30;;;;;;;;;;10295243;28;20084;-67
2023/09/30 04:09:10;;;;;;;17.33;8.45;;;;;;;;;;10291928;28;20068;-66
2023/09/30 04:14:09;;;;;;;16.65;9.60;;;;;;;;;;10293606;28;20079;-67
2023/09/30 04:19:10;;;;;;;15.20;8.38;;;;;;;;;;10290778;28;20076;-66
2023/09/30 04:24:09;;;;;;;15.63;9.63;;;;;;;;;;10290805;28;20076;-67
2023/09/30 04:29:10;;;;;;;14.82;8.43;;;;;;;;;;10291386;28;20077;-67
2023/09/30 04:34:10;;;;;;;26.85;9.75;;;;;;;;;;10288985;28;20083;-67
2023/09/30 04:39:08;;;;;;;22.65;8.80;;;;;;;;;;10288832;28;20071;-66
2023/09/30 04:44:07;;;;;;;10.13;8.85;;;;;;;;;;10284246;28;20072;-65
2023/09/30 04:49:05;;;;;;;16.65;9.85;;;;;;;;;;10289693;28;20073;-67
2023/09/30 04:54:06;;;;;;;14.68;8.52;;;;;;;;;;10287651;28;20092;-66
2023/09/30 04:59:05;;;;;;;17.50;8.75;;;;;;;;;;10285634;28;20354;-67
2023/09/30 05:04:03;;;;;;;17.75;9.75;;;;;;;;;;10289637;28;20072;-66
2023/09/30 05:09:02;;;;;;;24.30;10.00;;;;;;;;;;10283956;28;20389;-66
2023/09/30 05:14:05;;;;;;;20.85;9.70;;;;;;;;;;10285927;28;20064;-67
2023/09/30 05:19:04;;;;;;;18.88;9.80;;;;;;;;;;10289557;28;20494;-66
2023/09/30 05:24:03;;;;;;;20.33;8.88;;;;;;;;;;10288480;28;20072;-66
2023/09/30 05:29:03;;;;;;;26.52;8.63;;;;;;;;;;10289765;28;20518;-67
2023/09/30 05:34:02;;;;;;;13.60;8.80;;;;;;;;;;10288682;28;20073;-67
2023/09/30 05:39:00;;;;;;;19.75;8.10;;;;;;;;;;10291403;28;20068;-67
2023/09/30 05:43:59;;;;;;;15.70;8.73;;;;;;;;;;10291524;28;20147;-67
2023/09/30 05:48:59;;;;;;;12.38;8.50;;;;;;;;;;10290594;28;20072;-66
2023/09/30 05:53:57;;;;;;;13.00;7.82;;;;;;;;;;10289479;28;20060;-67
2023/09/30 05:58:56;;;;;;;17.63;8.20;;;;;;;;;;10290438;28;20486;-66
2023/09/30 06:03:54;;;;;;;15.60;7.15;;;;;;;;;;10290413;28;20072;-66
2023/09/30 06:08:54;;;;;;;11.77;8.05;;;;;;;;;;10289130;28;20075;-66
2023/09/30 06:13:53;;;;;;;13.40;7.75;;;;;;;;;;10289796;28;20441;-66
2023/09/30 06:18:52;;;;;;;11.48;7.55;;;;;;;;;;10286056;28;20068;-66
2023/09/30 06:23:51;;;;;;;19.98;7.90;;;;;;;;;;10288150;28;20110;-66
2023/09/30 06:28:54;;;;;;;18.20;7.80;;;;;;;;;;10284431;28;20077;-66
2023/09/30 06:33:52;;;;;;;13.35;8.45;;;;;;;;;;10283868;28;20057;-65
2023/09/30 06:38:52;;;;;;;17.05;8.98;;;;;;;;;;10288027;28;20063;-67
2023/09/30 06:43:51;;;;;;;20.92;8.18;;;;;;;;;;10287758;28;20076;-66
2023/09/30 06:48:52;;;;;;;13.30;8.02;;;;;;;;;;10287312;28;20060;-66
2023/09/30 06:53:50;;;;;;;12.55;8.02;;;;;;;;;;10288171;28;20073;-67
2023/09/30 06:58:48;;;;;;;18.85;9.00;;;;;;;;;;10282619;28;20471;-66
2023/09/30 07:03:48;;;;;;;15.88;9.73;;;;;;;;;;10286560;28;20538;-67
2023/09/30 07:08:47;;;;;;;14.93;9.02;;;;;;;;;;10290175;28;20080;-66
2023/09/30 07:13:45;;;;;;;19.27;9.20;;;;;;;;;;10288569;28;20079;-66
2023/09/30 07:18:43;;;;;;;17.17;8.88;;;;;;;;;;10287231;28;20072;-67
2023/09/30 07:23:43;;;;;;;14.93;9.25;;;;;;;;;;10286441;28;20488;-67
2023/09/30 07:28:41;;;;;;;12.82;8.18;;;;;;;;;;10284306;28;20081;-67
2023/09/30 07:33:40;;;;;;;17.88;8.13;;;;;;;;;;10287400;28;20076;-67
2023/09/30 07:38:38;;;;;;;17.85;7.72;;;;;;;;;;10287631;28;20087;-67
2023/09/30 07:43:38;;;;;;;20.60;8.18;;;;;;;;;;10284186;28;20073;-68
2023/09/30 07:48:36;;;;;;;14.98;8.35;;;;;;;;;;10289270;28;20106;-66
2023/09/30 07:53:34;;;;;;;15.65;8.07;;;;;;;;;;10297458;28;20075;-67
2023/09/30 07:58:32;;;;;;;12.25;8.77;;;;;;;;;;10294827;28;20091;-66
2023/09/30 08:03:33;;;;;;;17.83;8.50;;;;;;;;;;10293667;28;20461;-68
2023/09/30 08:08:32;;;;;;;16.23;8.45;;;;;;;;;;10289516;28;20065;-68
2023/09/30 08:13:30;;;;;;;14.27;8.50;;;;;;;;;;10294954;28;20105;-66
2023/09/30 08:18:28;;;;;;;13.98;8.48;;;;;;;;;;10292413;28;20071;-67
2023/09/30 08:23:28;;;;;;;19.23;8.30;;;;;;;;;;10293013;28;20446;-68
2023/09/30 08:28:26;;;;;;;13.02;7.45;;;;;;;;;;10286868;28;20092;-68
2023/09/30 08:33:26;;;;;;;16.20;7.05;;;;;;;;;;10292687;28;20071;-67
2023/09/30 08:38:24;;;;;;;24.58;8.00;;;;;;;;;;10289794;28;20521;-67
2023/09/30 08:43:27;;;;;;;14.93;7.63;;;;;;;;;;10289985;28;20525;-67
2023/09/30 08:48:26;;;;;;;17.60;6.95;;;;;;;;;;10290848;28;20469;-66
2023/09/30 08:53:25;;;;;;;17.95;7.38;;;;;;;;;;10289295;28;20061;-67
2023/09/30 08:58:27;;;;;;;22.60;7.32;;;;;;;;;;10290342;28;20079;-66
2023/09/30 09:03:29;;;;;;;18.90;6.97;;;;;;;;;;10289027;28;20068;-67
2023/09/30 09:08:27;;;;;;;18.27;7.40;;;;;;;;;;10286028;28;20091;-68
2023/09/30 09:13:27;;;;;;;8.88;6.55;;;;;;;;;;10290268;28;20064;-67
2023/09/30 09:18:32;;;;;;;17.80;6.15;;;;;;;;;;10289105;28;20073;-68
2023/09/30 09:23:39;;;;;;;8.30;5.72;;;;;;;;;;10287511;28;20459;-67
2023/09/30 09:28:39;;;;;;;13.13;7.13;;;;;;;;;;10280439;28;20087;-67
2023/09/30 09:33:37;;;;;;;16.05;7.22;;;;;;;;;;10284996;28;20068;-67
2023/09/30 09:38:44;;;;;;;9.75;6.60;;;;;;;;;;10287584;28;20060;-68
2023/09/30 09:43:44;;;;;;;15.43;6.57;;;;;;;;;;10285454;28;20064;-68
2023/09/30 09:48:42;;;;;;;25.20;7.32;;;;;;;;;;10289779;28;20083;-68
2023/09/30 09:53:42;;;;;;;15.65;6.53;;;;;;;;;;10285872;28;20463;-67
2023/09/30 09:58:43;;;;;;;18.45;7.13;;;;;;;;;;10289105;28;20060;-66
2023/09/30 10:03:44;;;;;;;15.48;6.57;;;;;;;;;;10287277;28;20072;-66
2023/09/30 10:08:45;;;;;;;21.55;7.00;;;;;;;;;;10289250;28;20071;-67
2023/09/30 10:13:56;;;;;;;24.33;7.50;;;;;;;;;;10286067;28;20071;-66
2023/09/30 10:19:12;;;;;;;12.77;7.35;;;;;;;;;;10286618;28;20075;-67
2023/09/30 10:24:29;;;;;;;33.30;13.52;;;;;;;;;;10281566;28;20071;-66
2023/09/30 10:29:40;;;;;;;25.98;8.85;;;;;;;;;;10283105;28;20084;-66
2023/09/30 10:34:40;;;;;;;24.33;9.55;;;;;;;;;;10286512;28;20127;-66
2023/09/30 10:40:02;;;;;;;14.45;10.27;;;;;;;;;;10287285;28;20488;-66
2023/09/30 10:45:01;;;;;;;11.55;7.85;;;;;;;;;;10281004;28;20084;-65
2023/09/30 10:50:04;;;;;;;11.32;6.20;;;;;;;;;;10287047;28;20075;-66
2023/09/30 10:55:07;;;;;;;14.52;6.47;;;;;;;;;;10282516;28;20069;-65
2023/09/30 11:00:08;;;;;;;11.43;7.07;;;;;;;;;;10286303;28;20076;-66
2023/09/30 11:05:11;;;;;;;10.48;6.15;;;;;;;;;;10274489;28;20077;-66
2023/09/30 11:10:12;;;;;;;11.90;6.57;;;;;;;;;;10277628;28;20298;-67
2023/09/30 11:15:11;;;;;;;11.15;5.50;;;;;;;;;;10285232;28;20498;-66
2023/09/30 11:20:10;;;;;;;13.35;7.07;;;;;;;;;;10281623;28;20068;-67
2023/09/30 11:25:16;;;;;;;11.82;5.20;;;;;;;;;;10284424;28;21412;-67
2023/09/30 11:30:14;;;;;;;13.25;4.97;;;;;;;;;;10286199;28;20080;-66
2023/09/30 11:35:22;;;;;;;14.98;4.32;;;;;;;;;;10293594;28;20087;-66
2023/09/30 11:40:23;;;;;;;16.95;4.53;;;;;;;;;;10292883;28;20077;-67
2023/09/30 11:45:22;;;;;;;10.43;4.45;;;;;;;;;;10292242;28;20076;-66
2023/09/30 11:50:21;;;;;;;8.07;4.47;;;;;;;;;;10291373;28;20529;-65
2023/09/30 11:55:20;;;;;;;11.80;4.13;;;;;;;;;;10292173;28;20181;-65
2023/09/30 12:00:20;;;;;;;19.23;5.78;;;;;;;;;;10292879;28;20083;-66
2023/09/30 12:05:22;;;;;;;9.00;5.40;;;;;;;;;;10290844;28;20073;-65
2023/09/30 12:10:20;;;;;;;6.38;4.38;;;;;;;;;;10284843;28;20075;-65
2023/09/30 12:15:22;;;;;;;10.43;4.18;;;;;;;;;;10289156;28;20065;-67
2023/09/30 12:20:20;;;;;;;16.65;4.90;;;;;;;;;;10288089;28;20182;-66
2023/09/30 12:25:21;;;;;;;12.45;5.18;;;;;;;;;;10287897;28;20388;-66
2023/09/30 12:30:21;;;;;;;11.18;4.78;;;;;;;;;;10290795;28;20100;-66
2023/09/30 12:35:19;;;;;;;11.63;4.25;;;;;;;;;;10291215;28;20072;-66
2023/09/30 12:40:17;;;;;;;8.50;4.20;;;;;;;;;;10290976;28;20497;-65
2023/09/30 12:45:17;;;;;;;5.93;4.00;;;;;;;;;;10293007;28;20067;-66
2023/09/30 12:50:17;;;;;;;10.10;4.40;;;;;;;;;;10291342;28;20066;-66
2023/09/30 12:55:15;;;;;;;9.50;4.07;;;;;;;;;;10290475;28;20072;-67
2023/09/30 13:00:15;;;;;;;13.50;4.22;;;;;;;;;;10290431;28;20083;-67
2023/09/30 13:05:13;;;;;;;5.65;3.88;;;;;;;;;;10288666;28;20521;-66
2023/09/30 13:10:14;;;;;;;7.63;4.53;;;;;;;;;;10289236;28;20076;-66
2023/09/30 13:15:14;;;;;;;6.10;4.47;;;;;;;;;;10284132;28;20072;-66
2023/09/30 13:20:12;;;;;;;13.57;5.22;;;;;;;;;;10286548;28;20076;-66
2023/09/30 13:25:12;;;;;;;12.10;4.53;;;;;;;;;;10289226;28;20069;-66
2023/09/30 13:30:12;;;;;;;11.38;4.38;;;;;;;;;;10288903;28;20540;-67
2023/09/30 13:35:10;;;;;;;13.32;5.30;;;;;;;;;;10290091;28;20197;-66
2023/09/30 13:40:11;;;;;;;9.60;5.15;;;;;;;;;;10278888;28;20064;-66
2023/09/30 13:45:12;;;;;;;10.02;4.88;;;;;;;;;;10285813;28;20069;-66
2023/09/30 13:50:10;;;;;;;10.85;4.60;;;;;;;;;;10284134;28;20083;-66
2023/09/30 13:55:09;;;;;;;8.82;4.70;;;;;;;;;;10285886;28;20083;-66
2023/09/30 14:00:10;;;;;;;9.48;4.70;;;;;;;;;;10283243;28;20080;-66
2023/09/30 14:05:11;;;;;;;14.13;5.15;;;;;;;;;;10285119;28;20084;-66
2023/09/30 14:10:10;;;;;;;12.77;5.20;;;;;;;;;;10286243;28;20079;-66
2023/09/30 14:15:09;;;;;;;8.05;4.25;;;;;;;;;;10284010;28;20080;-65
2023/09/30 14:20:12;;;;;;;12.80;4.05;;;;;;;;;;10286089;28;20506;-66
2023/09/30 14:25:10;;;;;;;8.13;4.07;;;;;;;;;;10287086;28;20065;-66
2023/09/30 14:30:09;;;;;;;11.85;4.38;;;;;;;;;;10286002;28;20526;-66
2023/09/30 14:35:09;;;;;;;7.43;4.32;;;;;;;;;;10284704;28;20072;-66
2023/09/30 14:40:10;;;;;;;8.55;4.30;;;;;;;;;;10283538;28;20049;-66
2023/09/30 14:45:10;;;;;;;14.15;4.47;;;;;;;;;;10283617;28;20100;-66
2023/09/30 14:50:09;;;;;;;7.07;4.07;;;;;;;;;;10284407;28;20110;-67
2023/09/30 14:55:10;;;;;;;11.15;4.75;;;;;;;;;;10283795;28;20080;-66
2023/09/30 15:00:10;;;;;;;15.50;5.18;;;;;;;;;;10293568;28;20087;-66
2023/09/30 15:05:09;;;;;;;12.48;4.32;;;;;;;;;;10295771;28;20073;-66
2023/09/30 15:10:08;;;;;;;17.00;4.75;;;;;;;;;;10294473;28;20076;-66
2023/09/30 15:15:08;;;;;;;10.45;5.60;;;;;;;;;;10294684;28;20087;-66
2023/09/30 15:20:07;;;;;;;14.43;4.78;;;;;;;;;;10293336;28;20073;-66
2023/09/30 15:25:06;;;;;;;12.68;4.57;;;;;;;;;;10293828;28;20349;-66
2023/09/30 15:30:05;;;;;;;9.27;5.30;;;;;;;;;;10292525;28;20099;-66
2023/09/30 15:35:06;;;;;;;12.15;5.22;;;;;;;;;;10294954;28;20076;-65
2023/09/30 15:40:05;;;;;;;14.73;5.38;;;;;;;;;;10288518;28;20068;-66
2023/09/30 15:45:04;;;;;;;11.48;5.95;;;;;;;;;;10294143;28;20085;-65
2023/09/30 15:50:03;;;;;;;14.00;5.53;;;;;;;;;;10295830;28;20091;-65
2023/09/30 15:55:02;;;;;;;13.00;5.68;;;;;;;;;;10292063;28;20040;-65
2023/09/30 16:00:01;;;;;;;17.05;5.53;;;;;;;;;;10299663;28;20056;-66
2023/09/30 16:05:04;;;;;;;22.67;7.18;;;;;;;;;;10295537;28;20080;-66
2023/09/30 16:10:04;;;;;;;13.38;4.97;;;;;;;;;;10290450;28;20088;-66
2023/09/30 16:15:05;;;;;;;16.88;6.25;;;;;;;;;;10293336;28;20083;-66
2023/09/30 16:20:04;;;;;;;11.63;5.82;;;;;;;;;;10291091;28;20077;-66
2023/09/30 16:25:05;;;;;;;12.82;5.55;;;;;;;;;;10291909;28;20502;-66
2023/09/30 16:30:04;;;;;;;15.55;5.80;;;;;;;;;;10289972;28;20088;-66
2023/09/30 16:35:03;;;;;;;6.93;4.72;;;;;;;;;;10291736;28;20080;-66
2023/09/30 16:40:01;;;;;;;15.98;4.88;;;;;;;;;;10291098;28;20090;-65
2023/09/30 16:45:01;;;;;;;16.80;4.95;;;;;;;;;;10293270;28;20072;-66
2023/09/30 16:50:00;;;;;;;12.07;4.80;;;;;;;;;;10291375;28;20084;-65
2023/09/30 16:54:59;;;;;;;13.80;5.15;;;;;;;;;;10293128;28;20056;-66
2023/09/30 16:59:58;;;;;;;7.72;4.25;;;;;;;;;;10290917;28;20072;-67
2023/09/30 17:05:02;;;;;;;13.23;4.63;;;;;;;;;;10289835;28;20064;-67
2023/09/30 17:10:00;;;;;;;;;;;;;;;;;;10288505;28;20493;-66
2023/09/30 17:14:59;;;;;;;8.70;4.05;;;;;;;;;;10289343;28;19959;-66
2023/09/30 17:19:58;;;;;;;9.43;4.50;;;;;;;;;;10288170;28;20080;-66
2023/09/30 17:24:57;;;;;;;6.50;4.07;;;;;;;;;;10286984;28;20075;-66
2023/09/30 17:29:56;;;;;;;14.40;4.82;;;;;;;;;;10288253;28;20084;-66
2023/09/30 17:34:55;;;;;;;11.27;4.68;;;;;;;;;;10288292;28;20083;-67
2023/09/30 17:39:54;;;;;;;9.02;4.32;;;;;;;;;;10288132;28;20096;-66
2023/09/30 17:44:54;;;;;;;8.80;4.28;;;;;;;;;;10290116;28;20060;-66
2023/09/30 17:49:53;;;;;;;7.38;4.82;;;;;;;;;;10292368;28;20465;-65
2023/09/30 17:54:51;;;;;;;15.30;4.60;;;;;;;;;;10289092;28;20524;-66
2023/09/30 17:59:53;;;;;;;8.38;4.07;;;;;;;;;;10288802;28;20075;-69
2023/09/30 18:04:52;;;;;;;9.63;4.57;;;;;;;;;;10286041;28;20079;-66
2023/09/30 18:09:50;;;;;;;10.75;4.63;;;;;;;;;;10285355;28;20085;-66
2023/09/30 18:14:48;;;;;;;8.85;4.55;;;;;;;;;;10285769;28;20131;-65
2023/09/30 18:19:49;;;;;;;7.13;4.72;;;;;;;;;;10289181;28;20079;-66
2023/09/30 18:24:47;;;;;;;18.02;6.20;;;;;;;;;;10285501;28;20084;-65
2023/09/30 18:29:46;;;;;;;14.77;6.82;;;;;;;;;;10285726;28;20229;-65
2023/09/30 18:34:44;;;;;;;10.38;6.55;;;;;;;;;;10289736;28;20075;-67
2023/09/30 18:39:43;;;;;;;15.10;4.90;;;;;;;;;;10286506;28;20589;-65
2023/09/30 18:44:42;;;;;;;10.35;4.32;;;;;;;;;;10277328;28;20490;-65
2023/09/30 18:49:40;;;;;;;7.25;4.40;;;;;;;;;;10282424;28;20098;-65
2023/09/30 18:54:38;;;;;;;14.32;5.63;;;;;;;;;;10287025;28;20068;-66
2023/09/30 18:59:40;;;;;;;13.77;5.93;;;;;;;;;;10282854;28;20060;-66
2023/09/30 19:04:41;;;;;;;12.05;5.65;;;;;;;;;;10284669;28;20064;-68
2023/09/30 19:09:40;;;;;;;18.85;9.43;;;;;;;;;;10283056;28;20076;-67
2023/09/30 19:14:40;;;;;;;41.85;34.80;;;;;;;;;;10286833;28;20068;-67
2023/09/30 19:19:40;;;;;;;39.50;31.67;;;;;;;;;;10280109;28;20068;-67
2023/09/30 19:24:38;;;;;;;32.63;25.98;;;;;;;;;;10283652;28;20076;-66
2023/09/30 19:29:36;;;;;;;28.63;22.60;;;;;;;;;;10278482;28;20163;-65
2023/09/30 19:34:36;;;;;;;28.55;24.73;;;;;;;;;;10285843;28;20068;-66
2023/09/30 19:39:34;;;;;;;25.50;22.73;;;;;;;;;;10284571;28;20147;-67
2023/09/30 19:44:34;;;;;;;29.48;24.20;;;;;;;;;;10285889;28;20495;-66
2023/09/30 19:49:32;;;;;;;27.42;22.00;;;;;;;;;;10291969;28;20132;-66
2023/09/30 19:54:32;;;;;;;25.92;20.45;;;;;;;;;;10291959;28;20536;-66
2023/09/30 19:59:31;;;;;;;21.20;18.45;;;;;;;;;;10290294;28;20075;-66
2023/09/30 20:04:29;;;;;;;20.40;14.82;;;;;;;;;;10292363;28;20072;-66
2023/09/30 20:09:27;;;;;;;17.95;14.40;;;;;;;;;;10291029;28;20072;-66
2023/09/30 20:14:27;;;;;;;18.73;16.00;;;;;;;;;;10282467;28;20708;-65
2023/09/30 20:19:29;;;;;;;19.10;15.18;;;;;;;;;;10285355;28;20525;-66
2023/09/30 20:24:27;;;;;;;24.45;17.60;;;;;;;;;;10289056;28;20907;-66
2023/09/30 20:29:26;;;;;;;25.73;19.92;;;;;;;;;;10289973;28;20073;-66
2023/09/30 20:34:26;;;;;;;31.45;21.10;;;;;;;;;;10288855;28;20510;-66
2023/09/30 20:39:24;;;;;;;30.75;20.67;;;;;;;;;;10292449;28;20072;-65
2023/09/30 20:44:22;;;;;;;23.63;20.23;;;;;;;;;;10289923;28;20087;-66
2023/09/30 20:49:20;;;;;;;28.65;20.95;;;;;;;;;;10291495;28;20112;-66
2023/09/30 20:54:20;;;;;;;23.15;19.15;;;;;;;;;;10290854;28;20088;-66
2023/09/30 20:59:18;;;;;;;26.50;18.58;;;;;;;;;;10295210;28;20075;-66
2023/09/30 21:04:17;;;;;;;25.95;18.45;;;;;;;;;;10289889;28;20068;-65
2023/09/30 21:09:17;;;;;;;22.00;16.98;;;;;;;;;;10289574;28;20087;-66
2023/09/30 21:14:16;;;;;;;26.70;16.90;;;;;;;;;;10288696;28;20083;-66
2023/09/30 21:19:15;;;;;;;26.48;15.70;;;;;;;;;;10288236;28;20076;-65
2023/09/30 21:24:13;;;;;;;23.10;15.35;;;;;;;;;;10289107;28;20064;-66
2023/09/30 21:29:11;;;;;;;19.85;14.77;;;;;;;;;;10286779;28;20088;-66
2023/09/30 21:34:11;;;;;;;21.15;14.23;;;;;;;;;;10291127;28;20474;-66
2023/09/30 21:39:12;;;;;;;15.25;13.65;;;;;;;;;;10288111;28;20338;-66
2023/09/30 21:44:12;;;;;;;18.15;14.27;;;;;;;;;;10285474;28;20081;-66
2023/09/30 21:49:11;;;;;;;20.40;14.60;;;;;;;;;;10291330;28;20084;-65
2023/09/30 21:54:10;;;;;;;19.85;13.98;;;;;;;;;;10288499;28;20079;-66
2023/09/30 21:59:08;;;;;;;18.38;13.57;;;;;;;;;;10288768;28;20068;-66
2023/09/30 22:04:06;;;;;;;18.08;13.25;;;;;;;;;;10287730;28;20060;-66
2023/09/30 22:09:06;;;;;;;21.77;12.45;;;;;;;;;;10287911;28;20068;-65
2023/09/30 22:14:05;;;;;;;16.55;12.82;;;;;;;;;;10287728;28;20721;-66
2023/09/30 22:19:03;;;;;;;16.38;11.77;;;;;;;;;;10286209;28;20079;-65
2023/09/30 22:24:01;;;;;;;16.15;11.55;;;;;;;;;;10287671;28;20072;-65
2023/09/30 22:29:01;;;;;;;14.73;12.18;;;;;;;;;;10285572;28;20092;-65
2023/09/30 22:33:59;;;;;;;17.17;13.23;;;;;;;;;;10285838;28;20068;-66
2023/09/30 22:38:57;;;;;;;17.40;12.18;;;;;;;;;;10285870;28;20088;-65
2023/09/30 22:43:56;;;;;;;17.45;12.40;;;;;;;;;;10284876;28;20505;-66
2023/09/30 22:48:57;;;;;;;12.13;9.25;;;;;;;;;;10289663;28;20075;-65
2023/09/30 22:53:56;;;;;;;11.30;8.32;;;;;;;;;;10284183;28;20080;-65
2023/09/30 22:58:54;;;;;;;16.48;8.07;;;;;;;;;;10288552;28;20064;-66
2023/09/30 23:03:53;;;;;;;11.25;6.65;;;;;;;;;;10288527;28;20466;-65
2023/09/30 23:08:52;;;;;;;10.73;6.32;;;;;;;;;;10285973;28;20072;-66
2023/09/30 23:13:51;;;;;;;11.82;7.70;;;;;;;;;;10284718;28;20077;-65
2023/09/30 23:18:49;;;;;;;14.85;9.55;;;;;;;;;;10287610;28;20099;-65
2023/09/30 23:23:48;;;;;;;19.75;9.93;;;;;;;;;;10293796;28;20120;-65
2023/09/30 23:28:48;;;;;;;12.98;9.63;;;;;;;;;;10294894;28;20077;-66
2023/09/30 23:33:48;;;;;;;14.75;10.15;;;;;;;;;;10292887;28;20089;-65
2023/09/30 23:38:46;;;;;;;17.20;13.07;;;;;;;;;;10295954;28;20072;-65
2023/09/30 23:43:45;;;;;;;20.13;11.95;;;;;;;;;;10296633;28;20072;-65
2023/09/30 23:48:44;;;;;;;12.50;11.20;;;;;;;;;;10293075;28;20065;-65
2023/09/30 23:53:43;;;;;;;21.92;10.40;;;;;;;;;;10293030;28;20075;-65
2023/09/30 23:58:41;;;;;;;25.63;10.85;;;;;;;;;;10289537;28;20514;-65
